Time;durP1;ratioP1;P1;durP2;ratioP2;P2;SDS_P1;SDS_P2;PMS_P1;PMS_P2;Temp;Humidity;BMP_temperature;BMP_pressure;BME280_temperature;BME280_humidity;BME280_pressure;Samples;Min_cycle;Max_cycle;Signal;HPM_P1;HPM_P2
2022/03/14 00:00:20;;;;;;;;;5.25;5.25;;;;;11.45;62.42;101294.59;2121476;27;47988;-65
2022/03/14 00:01:21;;;;;;;;;8.20;6.80;;;;;11.47;62.68;101290.13;2119108;27;47403;-64
2022/03/14 00:02:22;;;;;;;;;6.40;5.40;;;;;11.47;62.49;101290.13;2121112;27;47555;-66
2022/03/14 00:03:25;;;;;;;;;7.50;7.00;;;;;11.47;62.47;101293.66;2121067;27;47090;-66
2022/03/14 00:04:26;;;;;;;;;5.00;5.00;;;;;11.49;62.28;101306.91;2121472;27;47470;-63
2022/03/14 00:05:31;;;;;;;;;3.75;3.75;;;;;11.48;62.22;101306.03;2130497;27;47432;-64
2022/03/14 00:06:34;;;;;;;;;5.80;5.80;;;;;11.47;62.18;101311.38;2130303;27;47548;-62
2022/03/14 00:07:36;;;;;;;;;5.60;5.00;;;;;11.46;62.30;101302.53;2121862;27;48108;-65
2022/03/14 00:08:41;;;;;;;;;4.40;4.20;;;;;11.48;62.20;101307.81;2106274;27;48062;-65
2022/03/14 00:09:41;;;;;;;;;4.00;4.00;;;;;11.46;62.42;101307.84;2105353;27;48003;-65
2022/03/14 00:10:45;;;;;;;;;5.00;5.00;;;;;11.47;62.41;101311.38;2102561;28;47406;-63
2022/03/14 00:11:45;;;;;;;;;5.40;3.80;;;;;11.48;62.34;101314.00;2096278;27;47694;-66
2022/03/14 00:12:51;;;;;;;;;5.00;5.00;;;;;11.47;62.16;101316.69;2121182;27;47102;-63
2022/03/14 00:13:52;;;;;;;;;5.60;4.80;;;;;11.46;62.33;101315.81;2130149;27;47851;-66
2022/03/14 00:14:54;;;;;;;;;4.00;3.00;;;;;11.44;61.95;101314.97;2127274;27;47676;-65
2022/03/14 00:15:57;;;;;;;;;3.00;3.00;;;;;11.43;62.25;101318.53;2119160;27;47875;-64
2022/03/14 00:16:59;;;;;;;;;7.20;5.00;;;;;11.44;61.94;101322.94;2121022;27;47869;-62
2022/03/14 00:18:01;;;;;;;;;6.80;6.40;;;;;11.43;62.08;101321.19;2125743;27;48111;-65
2022/03/14 00:19:02;;;;;;;;;8.20;7.00;;;;;11.45;62.19;101323.81;2112637;27;47218;-65
2022/03/14 00:20:04;;;;;;;;;6.20;6.20;;;;;11.45;62.01;101323.81;2099914;27;47892;-66
2022/03/14 00:21:05;;;;;;;;;5.20;5.20;;;;;11.45;62.02;101330.03;2106927;27;47700;-66
2022/03/14 00:22:06;;;;;;;;;4.20;4.20;;;;;11.46;62.25;101334.44;2121223;27;48191;-64
2022/03/14 00:23:08;;;;;;;;;4.25;4.00;;;;;11.46;62.05;101333.56;2121284;27;46198;-67
2022/03/14 00:24:11;;;;;;;;;6.80;6.80;;;;;11.47;62.15;101337.97;2121886;27;47512;-66
2022/03/14 00:25:12;;;;;;;;;5.40;5.00;;;;;11.47;62.15;101338.84;2127411;27;47393;-66
2022/03/14 00:26:12;;;;;;;;;4.00;4.00;;;;;11.47;61.99;101346.81;2124991;27;47667;-65
2022/03/14 00:27:14;;;;;;;;;3.50;3.50;;;;;11.47;62.18;101341.50;2129058;27;47534;-64
2022/03/14 00:28:14;;;;;;;;;5.60;5.60;;;;;11.47;62.05;101340.63;2127321;27;47545;-65
2022/03/14 00:29:15;;;;;;;;;4.25;4.25;;;;;11.47;61.99;101352.13;2127995;27;47868;-64
2022/03/14 00:30:16;;;;;;;;;4.40;4.40;;;;;11.48;62.11;101356.53;2121498;27;47780;-64
2022/03/14 00:31:16;;;;;;;;;5.00;5.00;;;;;11.48;62.04;101343.25;2121307;27;47900;-64
2022/03/14 00:32:17;;;;;;;;;4.50;4.00;;;;;11.50;61.82;101356.50;2125912;27;47606;-61
2022/03/14 00:33:17;;;;;;;;;2.00;2.00;;;;;11.50;61.72;101365.38;2122851;27;47436;-65
2022/03/14 00:34:17;;;;;;;;;2.00;2.00;;;;;11.50;61.81;101353.84;2121534;27;47622;-65
2022/03/14 00:35:18;;;;;;;;;3.00;2.00;;;;;11.51;61.78;101363.59;2121800;27;48013;-62
2022/03/14 00:36:19;;;;;;;;;5.75;4.00;;;;;11.51;61.85;101366.25;2121326;27;47188;-64
2022/03/14 00:37:20;;;;;;;;;3.40;3.40;;;;;11.51;61.81;101371.56;2094793;28;46450;-62
2022/03/14 00:38:20;;;;;;;;;6.25;6.00;;;;;11.51;61.54;101371.56;2093022;27;47621;-66
2022/03/14 00:39:21;;;;;;;;;3.50;3.50;;;;;11.50;61.58;101376.00;2118167;27;47731;-62
2022/03/14 00:40:21;;;;;;;;;5.00;4.25;;;;;11.50;61.67;101376.00;2122534;27;47441;-63
2022/03/14 00:41:22;;;;;;;;;3.33;3.33;;;;;11.49;61.70;101376.91;2121587;27;47622;-64
2022/03/14 00:42:23;;;;;;;;;6.80;6.40;;;;;11.51;61.74;101382.19;2121852;27;47491;-65
2022/03/14 00:43:23;;;;;;;;;5.00;4.00;;;;;11.52;61.69;101383.06;2121615;27;48017;-63
2022/03/14 00:44:24;;;;;;;;;4.00;4.00;;;;;11.53;61.71;101390.13;2121950;27;47786;-63
2022/03/14 00:45:25;;;;;;;;;4.00;3.50;;;;;11.53;61.64;101390.13;2121536;27;47965;-62
2022/03/14 00:46:25;;;;;;;;;6.00;5.00;;;;;11.54;61.47;101383.91;2121596;27;48214;-62
2022/03/14 00:47:26;;;;;;;;;3.50;3.00;;;;;11.53;61.35;101384.81;2121600;27;47884;-65
2022/03/14 00:48:27;;;;;;;;;4.50;4.25;;;;;11.52;61.51;101399.88;2126679;27;47643;-63
2022/03/14 00:49:27;;;;;;;;;2.00;2.00;;;;;11.52;61.65;101391.03;2121653;27;47697;-64
2022/03/14 00:50:28;;;;;;;;;5.00;3.00;;;;;11.51;61.66;101395.47;2121498;27;47138;-63
2022/03/14 00:51:28;;;;;;;;;5.00;5.00;;;;;11.52;61.52;101396.34;2121428;27;47888;-64
2022/03/14 00:52:29;;;;;;;;;3.25;3.25;;;;;11.53;61.42;101395.44;2121494;27;47123;-64
2022/03/14 00:53:31;;;;;;;;;4.50;2.50;;;;;11.52;61.40;101401.69;2128748;27;47357;-63
2022/03/14 00:54:31;;;;;;;;;4.25;4.25;;;;;11.53;61.24;101395.44;2124584;27;47708;-62
2022/03/14 00:55:32;;;;;;;;;3.50;3.50;;;;;11.53;61.34;101400.78;2129115;27;47632;-63
2022/03/14 00:56:32;;;;;;;;;4.75;4.75;;;;;11.53;61.40;101399.00;2121529;27;47152;-64
2022/03/14 00:57:33;;;;;;;;;2.00;2.00;;;;;11.52;61.39;101399.88;2121347;27;47657;-62
2022/03/14 00:58:34;;;;;;;;;5.33;5.00;;;;;11.52;61.53;101401.69;2121295;27;47859;-63
2022/03/14 00:59:35;;;;;;;;;4.60;4.60;;;;;11.53;61.52;101406.97;2121622;27;47972;-65
2022/03/14 01:00:35;;;;;;;;;2.33;2.00;;;;;11.52;61.52;101405.22;2123899;27;48096;-63
2022/03/14 01:01:36;;;;;;;;;5.00;3.33;;;;;11.54;61.50;101408.72;2128904;27;47515;-65
2022/03/14 01:02:36;;;;;;;;;2.67;2.67;;;;;11.52;61.41;101407.88;2123489;27;47583;-63
2022/03/14 01:03:37;;;;;;;;;3.00;3.00;;;;;11.53;61.25;101422.91;2103597;27;47700;-64
2022/03/14 01:04:38;;;;;;;;;6.75;5.75;;;;;11.53;61.11;101412.28;2111460;27;47757;-64
2022/03/14 01:05:38;;;;;;;;;3.00;3.00;;;;;11.53;61.20;101420.25;2126372;27;47466;-64
2022/03/14 01:06:38;;;;;;;;;3.25;3.25;;;;;11.54;61.10;101419.34;2126076;27;47081;-64
2022/03/14 01:07:39;;;;;;;;;3.67;3.67;;;;;11.54;61.20;101426.44;2104450;27;48267;-63
2022/03/14 01:08:40;;;;;;;;;4.00;4.00;;;;;11.54;61.37;101426.44;2103179;27;47676;-64
2022/03/14 01:09:41;;;;;;;;;5.50;4.00;;;;;11.53;61.16;101428.22;2122603;27;47787;-64
2022/03/14 01:10:41;;;;;;;;;3.00;3.00;;;;;11.54;61.36;101437.06;2112971;27;47339;-62
2022/03/14 01:11:42;;;;;;;;;6.00;4.00;;;;;11.54;61.40;101431.75;2112018;27;47053;-64
2022/03/14 01:12:43;;;;;;;;;3.00;2.75;;;;;11.54;61.41;101427.31;2122558;27;47507;-64
2022/03/14 01:13:44;;;;;;;;;3.00;3.00;;;;;11.56;61.27;101435.28;2123849;27;47429;-62
2022/03/14 01:14:45;;;;;;;;;4.00;4.00;;;;;11.56;61.19;101435.28;2124939;27;46806;-63
2022/03/14 01:15:47;;;;;;;;;3.00;3.00;;;;;11.55;61.27;101439.72;2113005;27;45119;-67
2022/03/14 01:16:48;;;;;;;;;5.75;4.25;;;;;11.57;61.20;101443.25;2112098;27;45775;-67
2022/03/14 01:17:48;;;;;;;;;2.50;2.50;;;;;11.56;60.99;101444.16;2121398;27;45106;-66
2022/03/14 01:18:50;;;;;;;;;4.33;3.67;;;;;11.55;61.07;101445.03;2124599;27;47855;-64
2022/03/14 01:19:51;;;;;;;;;3.00;3.00;;;;;11.55;61.09;101449.47;2103117;27;45321;-68
2022/03/14 01:20:51;;;;;;;;;4.33;4.00;;;;;11.56;61.29;101449.47;2098088;28;47691;-63
2022/03/14 01:21:52;;;;;;;;;4.33;3.33;;;;;11.56;60.94;101448.56;2112065;27;47419;-61
2022/03/14 01:22:55;;;;;;;;;2.00;2.00;;;;;11.55;61.29;101455.66;2125569;27;47686;-62
2022/03/14 01:23:59;;;;;;;;;5.00;4.00;;;;;11.55;61.05;101458.31;2121279;27;47824;-65
2022/03/14 01:25:00;;;;;;;;;3.25;2.50;;;;;11.55;60.93;101463.63;2125017;27;47686;-64
2022/03/14 01:26:00;;;;;;;;;5.00;2.00;;;;;11.54;60.88;101458.34;2123271;27;47106;-63
2022/03/14 01:27:01;;;;;;;;;3.33;2.00;;;;;11.53;60.99;101468.09;2121209;27;47623;-62
2022/03/14 01:28:02;;;;;;;;;4.00;3.67;;;;;11.53;61.23;101468.09;2121470;27;47487;-63
2022/03/14 01:29:03;;;;;;;;;4.00;3.25;;;;;11.53;61.00;101469.88;2125639;27;47389;-60
2022/03/14 01:30:04;;;;;;;;;4.25;3.00;;;;;11.53;61.23;101467.22;2129617;27;47912;-64
2022/03/14 01:31:05;;;;;;;;;1.00;1.00;;;;;11.53;60.92;101464.56;2123772;27;47881;-61
2022/03/14 01:32:06;;;;;;;;;1.67;1.67;;;;;11.54;60.94;101471.63;2129958;27;47492;-64
2022/03/14 01:33:07;;;;;;;;;3.00;3.00;;;;;11.54;61.18;101469.84;2128446;27;48263;-62
2022/03/14 01:34:08;;;;;;;;;4.33;3.33;;;;;11.55;61.01;101468.94;2122769;27;47478;-63
2022/03/14 01:35:09;;;;;;;;;3.75;2.75;;;;;11.56;61.03;101473.41;2121327;27;47926;-63
2022/03/14 01:36:09;;;;;;;;;3.00;3.00;;;;;11.57;60.92;101480.47;2121203;27;47850;-63
2022/03/14 01:37:10;;;;;;;;;2.33;2.33;;;;;11.58;60.85;101476.03;2121335;27;47691;-64
2022/03/14 01:38:11;;;;;;;;;3.00;3.00;;;;;11.60;60.83;101479.53;2121304;27;47493;-61
2022/03/14 01:39:11;;;;;;;;;3.00;3.00;;;;;11.59;60.79;101477.78;2122523;27;47840;-64
2022/03/14 01:40:14;;;;;;;;;3.33;2.00;;;;;11.60;60.87;101480.41;2116710;27;47384;-61
2022/03/14 01:41:17;;;;;;;;;3.50;3.50;;;;;11.60;60.69;101477.75;2112516;27;47661;-63
2022/03/14 01:42:19;;;;;;;;;3.50;3.50;;;;;11.60;60.83;101477.75;2129124;27;47777;-64
2022/03/14 01:43:20;;;;;;;;;5.00;3.50;;;;;11.61;60.81;101487.50;2126405;27;47839;-60
2022/03/14 01:44:21;;;;;;;;;2.75;2.75;;;;;11.61;61.02;101484.84;2121440;27;47633;-62
2022/03/14 01:45:23;;;;;;;;;2.00;2.00;;;;;11.63;60.73;101488.34;2125384;27;48003;-61
2022/03/14 01:46:23;;;;;;;;;3.75;3.00;;;;;11.63;60.80;101492.78;2128095;27;47570;-65
2022/03/14 01:47:24;;;;;;;;;3.67;3.67;;;;;11.62;60.68;101481.28;2125051;27;47751;-65
2022/03/14 01:48:25;;;;;;;;;3.00;3.00;;;;;11.64;60.64;101479.47;2124547;27;47654;-64
2022/03/14 01:49:26;;;;;;;;;2.25;2.00;;;;;11.64;60.66;101481.25;2121271;27;48114;-64
2022/03/14 01:50:27;;;;;;;;;3.00;3.00;;;;;11.64;60.81;101483.91;2120999;27;48547;-61
2022/03/14 01:51:29;;;;;;;;;5.00;4.00;;;;;11.63;60.52;101487.47;2121055;27;47478;-64
2022/03/14 01:52:29;;;;;;;;;2.50;2.00;;;;;11.64;60.45;101489.22;2121179;27;47808;-64
2022/03/14 01:53:31;;;;;;;;;1.00;1.00;;;;;11.64;60.63;101486.56;2126699;27;47853;-64
2022/03/14 01:54:33;;;;;;;;;2.75;1.00;;;;;11.64;60.65;101483.91;2121525;27;48204;-62
2022/03/14 01:55:34;;;;;;;;;3.25;2.25;;;;;11.65;60.63;101491.84;2121038;27;47799;-65
2022/03/14 01:56:38;;;;;;;;;3.50;3.50;;;;;11.65;60.67;101489.19;2127437;27;47611;-64
2022/03/14 01:57:38;;;;;;;;;3.75;3.00;;;;;11.66;60.63;101490.97;2121246;27;48112;-65
2022/03/14 01:58:40;;;;;;;;;4.00;2.00;;;;;11.66;60.44;101490.97;2111338;27;47690;-63
2022/03/14 01:59:40;;;;;;;;;2.50;2.50;;;;;11.68;60.54;101490.94;2111706;27;47720;-63
2022/03/14 02:00:41;;;;;;;;;3.00;3.00;;;;;11.67;60.77;101495.38;2126846;27;47836;-64
2022/03/14 02:01:41;;;;;;;;;3.00;3.00;;;;;11.68;60.61;101491.81;2127155;27;47655;-64
2022/03/14 02:02:42;;;;;;;;;2.00;2.00;;;;;11.70;60.39;101497.13;2121136;27;47996;-63
2022/03/14 02:03:43;;;;;;;;;2.00;1.25;;;;;11.69;60.29;101496.25;2121082;27;47825;-63
2022/03/14 02:04:43;;;;;;;;;3.00;2.67;;;;;11.70;60.51;101503.34;2127516;27;47528;-64
2022/03/14 02:05:45;;;;;;;;;1.67;1.67;;;;;11.72;60.30;101492.66;2121149;27;47866;-61
2022/03/14 02:06:46;;;;;;;;;2.25;2.25;;;;;11.71;60.26;101494.44;2123507;27;47812;-65
2022/03/14 02:07:47;;;;;;;;;1.75;1.75;;;;;11.70;60.17;101498.00;2129913;27;47482;-63
2022/03/14 02:08:47;;;;;;;;;2.00;2.00;;;;;11.72;60.25;101498.00;2122632;27;47440;-63
2022/03/14 02:09:48;;;;;;;;;3.00;1.67;;;;;11.71;60.20;101493.56;2124172;27;47847;-63
2022/03/14 02:10:48;;;;;;;;;5.33;3.00;;;;;11.71;60.41;101499.78;2123922;27;47777;-63
2022/03/14 02:11:56;;;;;;;;;4.00;1.00;;;;;11.72;60.15;101503.31;2123379;27;47334;-64
2022/03/14 02:12:56;;;;;;;;;2.00;1.25;;;;;11.72;60.35;101505.97;2121306;27;47501;-63
2022/03/14 02:13:57;;;;;;;;;6.00;3.00;;;;;11.72;60.12;101500.66;2121259;27;47816;-63
2022/03/14 02:14:57;;;;;;;;;2.67;2.00;;;;;11.71;60.13;101497.09;2122170;27;47469;-65
2022/03/14 02:15:58;;;;;;;;;4.00;2.00;;;;;11.71;60.14;101496.22;2121029;27;47897;-64
2022/03/14 02:16:58;;;;;;;;;5.67;2.33;;;;;11.72;60.34;101498.88;2121121;27;47789;-63
2022/03/14 02:17:59;;;;;;;;;2.67;2.00;;;;;11.73;60.29;101499.75;2122009;27;47552;-63
2022/03/14 02:19:01;;;;;;;;;2.00;2.00;;;;;11.73;60.08;101499.75;2129382;27;47633;-60
2022/03/14 02:20:01;;;;;;;;;2.50;2.50;;;;;11.72;60.08;101495.31;2128520;27;47538;-64
2022/03/14 02:21:02;;;;;;;;;3.67;2.00;;;;;11.72;60.22;101498.00;2112193;27;47315;-62
2022/03/14 02:22:04;;;;;;;;;3.33;3.00;;;;;11.70;60.11;101492.69;2111835;27;47859;-65
2022/03/14 02:23:05;;;;;;;;;1.25;1.25;;;;;11.71;60.22;101493.56;2102619;28;48333;-58
2022/03/14 02:24:06;;;;;;;;;2.00;2.00;;;;;11.71;60.38;101498.88;2095013;27;48033;-63
2022/03/14 02:25:10;;;;;;;;;4.00;3.00;;;;;11.70;60.23;101500.66;2106531;27;46057;-65
2022/03/14 02:26:11;;;;;;;;;1.00;1.00;;;;;11.70;60.54;101506.00;2102774;28;48287;-62
2022/03/14 02:27:13;;;;;;;;;0.33;0.33;;;;;11.71;60.22;101504.22;2101049;27;47707;-63
2022/03/14 02:28:14;;;;;;;;;3.25;2.00;;;;;11.70;60.27;101502.44;2104802;27;47318;-62
2022/03/14 02:29:15;;;;;;;;;2.00;2.00;;;;;11.69;60.28;101506.88;2103186;28;47918;-63
2022/03/14 02:30:15;;;;;;;;;1.67;1.00;;;;;11.68;60.06;101512.19;2106211;27;47683;-64
2022/03/14 02:31:16;;;;;;;;;2.00;2.00;;;;;11.68;59.85;101509.53;2111367;27;47158;-62
2022/03/14 02:32:17;;;;;;;;;2.00;2.00;;;;;11.67;60.13;101500.69;2102334;28;47722;-64
2022/03/14 02:33:19;;;;;;;;;2.25;2.25;;;;;11.67;60.26;101508.66;2098816;28;46942;-61
2022/03/14 02:34:19;;;;;;;;;1.00;1.00;;;;;11.67;60.03;101505.13;2106848;27;47754;-65
2022/03/14 02:35:20;;;;;;;;;3.33;3.33;;;;;11.67;60.25;101507.78;2103201;27;47876;-61
2022/03/14 02:36:20;;;;;;;;;3.00;2.67;;;;;11.67;60.43;101506.00;2102509;27;47671;-65
2022/03/14 02:37:21;;;;;;;;;3.00;2.00;;;;;11.67;60.05;101502.47;2102871;28;46558;-58
2022/03/14 02:38:22;;;;;;;;;2.50;2.00;;;;;11.66;60.08;101503.38;2105314;27;47836;-61
2022/03/14 02:39:22;;;;;;;;;3.33;3.33;;;;;11.66;60.25;101504.25;2110015;27;47602;-64
2022/03/14 02:40:23;;;;;;;;;5.00;3.00;;;;;11.66;60.19;101509.56;2098311;28;47095;-60
2022/03/14 02:41:25;;;;;;;;;3.33;2.00;;;;;11.67;60.31;101507.78;2093936;28;48010;-62
2022/03/14 02:42:25;;;;;;;;;3.25;2.00;;;;;11.65;59.71;101507.81;2093960;28;47985;-61
2022/03/14 02:43:25;;;;;;;;;2.33;1.00;;;;;11.65;60.29;101505.16;2105893;27;47281;-62
2022/03/14 02:44:26;;;;;;;;;2.67;2.33;;;;;11.65;60.18;101506.94;2111516;27;47508;-60
2022/03/14 02:45:26;;;;;;;;;2.00;2.00;;;;;11.65;60.26;101506.94;2104848;27;47238;-63
2022/03/14 02:46:27;;;;;;;;;3.00;3.00;;;;;11.66;60.17;101508.69;2100389;28;47581;-62
2022/03/14 02:47:28;;;;;;;;;4.33;4.33;;;;;11.66;60.26;101500.72;2100878;28;47662;-64
2022/03/14 02:48:28;;;;;;;;;3.00;3.00;;;;;11.66;60.21;101514.00;2090786;28;47823;-63
2022/03/14 02:49:28;;;;;;;;;4.67;4.33;;;;;11.65;60.26;101518.44;2091934;28;47640;-63
2022/03/14 02:50:29;;;;;;;;;4.00;2.33;;;;;11.65;60.17;101518.44;2077916;28;47783;-60
2022/03/14 02:51:30;;;;;;;;;1.33;1.33;;;;;11.65;60.29;101522.88;2077624;28;47392;-63
2022/03/14 02:52:31;;;;;;;;;4.00;2.67;;;;;11.64;60.16;101529.97;2105376;27;47806;-64
2022/03/14 02:53:31;;;;;;;;;2.33;2.33;;;;;11.64;60.32;101532.63;2091075;28;47637;-62
2022/03/14 02:54:32;;;;;;;;;6.00;4.00;;;;;11.65;60.20;101536.19;2093595;28;47765;-63
2022/03/14 02:55:32;;;;;;;;;1.67;1.67;;;;;11.64;60.28;101535.31;2103128;28;47925;-62
2022/03/14 02:56:34;;;;;;;;;3.00;1.00;;;;;11.64;60.38;101535.31;2100564;27;47583;-64
2022/03/14 02:57:34;;;;;;;;;2.50;2.50;;;;;11.65;60.29;101538.84;2119718;27;47829;-65
2022/03/14 02:58:39;;;;;;;;;5.00;4.00;;;;;11.64;60.48;101537.97;2121791;27;47267;-63
2022/03/14 02:59:39;;;;;;;;;2.00;2.00;;;;;11.64;60.38;101545.94;2123621;27;48186;-62
2022/03/14 03:00:39;;;;;;;;;3.00;3.00;;;;;11.64;60.25;101548.59;2122084;27;46693;-63
2022/03/14 03:01:40;;;;;;;;;2.67;2.67;;;;;11.64;60.14;101545.94;2120562;27;47760;-62
2022/03/14 03:02:42;;;;;;;;;2.00;2.00;;;;;11.64;60.38;101558.34;2123915;27;47692;-63
2022/03/14 03:03:42;;;;;;;;;3.25;3.25;;;;;11.64;60.39;101558.34;2131159;27;48201;-62
2022/03/14 03:04:43;;;;;;;;;2.67;1.67;;;;;11.64;60.42;101556.56;2125320;27;47870;-59
2022/03/14 03:05:44;;;;;;;;;2.00;2.00;;;;;11.63;60.29;101557.47;2122687;27;47975;-62
2022/03/14 03:06:45;;;;;;;;;3.00;3.00;;;;;11.63;60.43;101564.56;2126567;27;47635;-63
2022/03/14 03:07:48;;;;;;;;;5.00;3.25;;;;;11.62;60.48;101562.81;2124881;27;48428;-63
2022/03/14 03:08:49;;;;;;;;;3.50;3.50;;;;;11.61;60.36;101561.06;2131260;27;47082;-63
2022/03/14 03:09:50;;;;;;;;;5.75;4.00;;;;;11.60;60.39;101570.81;2111320;27;47490;-59
2022/03/14 03:10:50;;;;;;;;;3.00;3.00;;;;;11.60;60.52;101568.16;2112613;27;48067;-59
2022/03/14 03:11:51;;;;;;;;;4.00;3.00;;;;;11.60;60.51;101575.25;2122091;27;47689;-61
2022/03/14 03:12:52;;;;;;;;;2.67;2.67;;;;;11.58;60.50;101574.41;2122228;27;47713;-60
2022/03/14 03:13:54;;;;;;;;;2.00;2.00;;;;;11.56;60.31;101577.06;2126472;27;48014;-62
2022/03/14 03:14:54;;;;;;;;;3.00;3.00;;;;;11.54;60.61;101576.19;2122669;27;47780;-61
2022/03/14 03:15:55;;;;;;;;;3.00;3.00;;;;;11.54;60.51;101575.31;2128824;27;47511;-60
2022/03/14 03:16:55;;;;;;;;;3.33;3.33;;;;;11.54;60.62;101585.94;2129165;27;47449;-62
2022/03/14 03:17:56;;;;;;;;;6.00;4.00;;;;;11.53;60.60;101586.84;2126737;27;47293;-61
2022/03/14 03:18:57;;;;;;;;;2.00;2.00;;;;;11.53;60.53;101589.50;2128808;27;47757;-64
2022/03/14 03:19:58;;;;;;;;;4.00;2.75;;;;;11.52;60.58;101585.97;2122351;27;47740;-63
2022/03/14 03:20:58;;;;;;;;;3.67;0.33;;;;;11.53;60.67;101586.84;2124100;27;47809;-62
2022/03/14 03:21:59;;;;;;;;;6.00;3.00;;;;;11.53;60.71;101597.47;2122267;27;47617;-62
2022/03/14 03:22:59;;;;;;;;;3.00;3.00;;;;;11.53;60.80;101603.66;2122308;27;47309;-63
2022/03/14 03:24:00;;;;;;;;;2.67;2.67;;;;;11.53;60.88;101605.44;2123933;27;47779;-64
2022/03/14 03:25:01;;;;;;;;;2.00;2.00;;;;;11.52;60.75;101601.91;2123919;27;47668;-60
2022/03/14 03:26:04;;;;;;;;;3.00;3.00;;;;;11.53;60.73;101606.31;2122320;27;47275;-64
2022/03/14 03:27:04;;;;;;;;;4.00;4.00;;;;;11.54;60.56;101612.53;2122306;27;47269;-63
2022/03/14 03:28:05;;;;;;;;;2.00;2.00;;;;;11.54;60.53;101607.19;2125030;27;47336;-63
2022/03/14 03:29:07;;;;;;;;;5.33;4.67;;;;;11.52;60.86;101612.53;2130136;27;47990;-63
2022/03/14 03:30:08;;;;;;;;;3.00;3.00;;;;;11.52;60.68;101611.66;2122187;27;47182;-63
2022/03/14 03:31:13;;;;;;;;;3.00;2.75;;;;;11.50;60.58;101612.56;2121950;27;47954;-64
2022/03/14 03:32:13;;;;;;;;;4.00;3.00;;;;;11.49;60.63;101605.50;2121984;27;47594;-64
2022/03/14 03:33:14;;;;;;;;;2.00;2.00;;;;;11.48;60.69;101610.81;2125590;27;47954;-63
2022/03/14 03:34:15;;;;;;;;;2.00;2.00;;;;;11.48;60.77;101621.47;2127536;27;47675;-65
2022/03/14 03:35:16;;;;;;;;;3.25;3.25;;;;;11.46;60.71;101608.19;2122198;27;47659;-64
2022/03/14 03:36:16;;;;;;;;;3.00;3.00;;;;;11.46;60.83;101613.50;2122139;27;47953;-63
2022/03/14 03:37:17;;;;;;;;;2.33;2.33;;;;;11.45;60.79;101614.41;2122160;27;47746;-65
2022/03/14 03:38:17;;;;;;;;;3.00;3.00;;;;;11.47;60.60;101617.03;2125781;27;47650;-62
2022/03/14 03:39:18;;;;;;;;;3.00;1.33;;;;;11.46;60.63;101617.94;2123778;27;47767;-61
2022/03/14 03:40:19;;;;;;;;;2.67;2.67;;;;;11.45;60.70;101616.19;2130590;27;47532;-63
2022/03/14 03:41:19;;;;;;;;;0.67;0.67;;;;;11.45;60.59;101618.84;2125877;27;47880;-62
2022/03/14 03:42:20;;;;;;;;;6.00;4.33;;;;;11.44;60.70;101620.63;2127292;27;47431;-62
2022/03/14 03:43:21;;;;;;;;;3.00;3.00;;;;;11.44;60.63;101630.38;2122141;27;47480;-61
2022/03/14 03:44:21;;;;;;;;;3.50;3.00;;;;;11.44;60.56;101627.72;2122323;27;48053;-62
2022/03/14 03:45:22;;;;;;;;;3.00;2.33;;;;;11.44;60.78;101631.25;2122023;27;48202;-62
2022/03/14 03:46:23;;;;;;;;;4.33;4.33;;;;;11.43;60.54;101634.81;2124984;27;47568;-63
2022/03/14 03:47:24;;;;;;;;;3.25;3.00;;;;;11.42;60.48;101629.47;2125197;27;47541;-61
2022/03/14 03:48:25;;;;;;;;;3.00;3.00;;;;;11.42;60.35;101637.47;2122324;27;47606;-64
2022/03/14 03:49:25;;;;;;;;;3.75;3.75;;;;;11.42;60.70;101640.13;2122161;27;47557;-62
2022/03/14 03:50:25;;;;;;;;;4.00;3.33;;;;;11.41;60.61;101639.22;2122595;27;45538;-65
2022/03/14 03:51:26;;;;;;;;;3.67;3.67;;;;;11.41;60.74;101641.88;2123271;27;47818;-64
2022/03/14 03:52:26;;;;;;;;;3.33;3.00;;;;;11.40;60.45;101641.91;2121980;27;47231;-62
2022/03/14 03:53:27;;;;;;;;;6.67;4.00;;;;;11.40;60.63;101639.25;2122059;27;48102;-64
2022/03/14 03:54:27;;;;;;;;;5.00;5.00;;;;;11.40;60.74;101648.09;2122104;27;47495;-64
2022/03/14 03:55:28;;;;;;;;;4.00;4.00;;;;;11.40;60.76;101649.88;2121861;27;47935;-62
2022/03/14 03:56:30;;;;;;;;;3.33;3.33;;;;;11.39;60.51;101641.03;2121791;27;47414;-63
2022/03/14 03:57:31;;;;;;;;;4.25;4.25;;;;;11.39;60.66;101645.47;2121858;27;47506;-62
2022/03/14 03:58:31;;;;;;;;;5.50;4.00;;;;;11.38;60.76;101644.59;2128819;27;47469;-65
2022/03/14 03:59:32;;;;;;;;;6.00;4.00;;;;;11.37;60.56;101645.50;2123725;27;47825;-63
2022/03/14 04:00:32;;;;;;;;;4.00;4.00;;;;;11.36;60.79;101646.38;2121887;27;47572;-63
2022/03/14 04:01:33;;;;;;;;;4.33;4.00;;;;;11.36;60.87;101642.84;2121787;27;46540;-60
2022/03/14 04:02:39;;;;;;;;;5.00;5.00;;;;;11.35;60.55;101644.63;2121768;27;47556;-63
2022/03/14 04:03:40;;;;;;;;;3.50;3.50;;;;;11.34;60.72;101649.97;2122136;27;47444;-63
2022/03/14 04:04:40;;;;;;;;;5.33;4.00;;;;;11.33;60.58;101645.53;2130644;27;47333;-63
2022/03/14 04:05:41;;;;;;;;;6.67;6.00;;;;;11.32;60.66;101654.41;2126221;27;47144;-63
2022/03/14 04:06:42;;;;;;;;;6.33;4.00;;;;;11.31;60.83;101656.19;2130742;27;47304;-64
2022/03/14 04:07:44;;;;;;;;;6.33;5.33;;;;;11.31;60.57;101653.53;2129516;27;47738;-62
2022/03/14 04:08:45;;;;;;;;;4.75;4.75;;;;;11.31;60.76;101663.28;2127620;27;47390;-63
2022/03/14 04:09:55;;;;;;;;;5.00;4.00;;;;;11.31;60.54;101660.63;2123931;27;47490;-65
2022/03/14 04:10:57;;;;;;;;;4.50;4.50;;;;;11.30;60.58;101672.13;2126132;27;47572;-63
2022/03/14 04:11:58;;;;;;;;;3.25;3.25;;;;;11.30;60.63;101669.47;2122403;27;47880;-63
2022/03/14 04:12:59;;;;;;;;;3.67;3.67;;;;;11.29;60.69;101678.34;2121830;27;48074;-64
2022/03/14 04:14:00;;;;;;;;;4.75;4.75;;;;;11.27;60.66;101681.00;2122079;27;48043;-58
2022/03/14 04:15:06;;;;;;;;;2.67;2.67;;;;;11.26;60.60;101673.94;2129868;27;47905;-62
2022/03/14 04:16:07;;;;;;;;;3.00;3.00;;;;;11.26;60.61;101678.38;2123025;27;48026;-60
2022/03/14 04:17:08;;;;;;;;;6.00;4.00;;;;;11.25;60.91;101682.81;2121625;27;48417;-64
2022/03/14 04:18:09;;;;;;;;;5.00;4.00;;;;;11.24;60.55;101683.72;2122707;27;46993;-63
2022/03/14 04:19:10;;;;;;;;;2.00;2.00;;;;;11.24;60.97;101681.06;2101412;28;46444;-63
2022/03/14 04:20:11;;;;;;;;;4.67;3.33;;;;;11.25;60.83;101681.94;2103372;28;47533;-62
2022/03/14 04:21:14;;;;;;;;;4.00;4.00;;;;;11.25;60.86;101684.59;2095458;28;47962;-62
2022/03/14 04:22:15;;;;;;;;;4.00;4.00;;;;;11.23;60.92;101681.06;2091116;28;47252;-63
2022/03/14 04:23:17;;;;;;;;;4.25;3.25;;;;;11.22;60.78;101680.19;2095523;28;47909;-63
2022/03/14 04:24:17;;;;;;;;;4.25;4.00;;;;;11.22;60.62;101685.50;2098957;28;47791;-61
2022/03/14 04:25:18;;;;;;;;;5.00;4.33;;;;;11.21;60.86;101686.41;2097577;28;46316;-63
2022/03/14 04:26:18;;;;;;;;;3.00;2.00;;;;;11.21;60.71;101691.72;2100452;28;47407;-62
2022/03/14 04:27:19;;;;;;;;;5.00;3.33;;;;;11.20;60.53;101687.28;2101703;28;47552;-63
2022/03/14 04:28:19;;;;;;;;;3.00;3.00;;;;;11.19;60.46;101702.34;2100018;28;47530;-62
2022/03/14 04:29:20;;;;;;;;;5.00;4.67;;;;;11.19;60.88;101690.84;2096969;28;47862;-63
2022/03/14 04:30:20;;;;;;;;;4.00;4.00;;;;;11.18;60.60;101697.06;2102380;28;47282;-61
2022/03/14 04:31:21;;;;;;;;;3.33;3.00;;;;;11.17;60.57;101690.84;2103680;28;48072;-63
2022/03/14 04:32:23;;;;;;;;;3.25;2.00;;;;;11.17;60.64;101700.59;2098180;28;47298;-62
2022/03/14 04:33:23;;;;;;;;;7.25;4.75;;;;;11.16;60.38;101699.69;2100594;28;47576;-61
2022/03/14 04:34:24;;;;;;;;;6.00;3.67;;;;;11.14;60.47;101695.31;2099124;28;47969;-60
2022/03/14 04:35:24;;;;;;;;;4.00;3.67;;;;;11.12;60.74;101694.44;2103682;28;47945;-60
2022/03/14 04:36:25;;;;;;;;;3.33;3.33;;;;;11.11;60.42;101698.88;2103932;28;47542;-63
2022/03/14 04:37:25;;;;;;;;;5.67;3.00;;;;;11.09;60.50;101700.66;2102976;28;47387;-61
2022/03/14 04:38:27;;;;;;;;;5.67;5.67;;;;;11.07;60.66;101699.81;2102031;28;47704;-59
2022/03/14 04:39:27;;;;;;;;;3.75;3.75;;;;;11.05;60.54;101706.91;2103534;28;47787;-62
2022/03/14 04:40:28;;;;;;;;;3.33;3.00;;;;;11.05;60.72;101713.97;2098711;28;45644;-61
2022/03/14 04:41:28;;;;;;;;;4.00;4.00;;;;;11.03;60.69;101719.28;2101001;28;47639;-63
2022/03/14 04:42:29;;;;;;;;;6.67;4.00;;;;;11.02;60.87;101711.34;2102788;28;47785;-61
2022/03/14 04:43:30;;;;;;;;;4.00;4.00;;;;;11.03;60.72;101713.09;2086681;28;47118;-62